createdAt,value
2023-04-20T00:02:13.500Z,19.00
2023-04-20T00:07:15.215Z,44.40
2023-04-20T00:12:18.082Z,35.25
2023-04-20T00:17:19.693Z,22.33
2023-04-20T00:22:21.284Z,21.85
2023-04-20T00:27:24.187Z,21.45
2023-04-20T00:32:25.799Z,19.67
2023-04-20T00:37:27.406Z,19.63
2023-04-20T00:42:30.363Z,39.33
2023-04-20T00:47:32.025Z,49.03
2023-04-20T00:52:33.926Z,48.78
2023-04-20T00:57:37.026Z,51.70
2023-04-20T01:02:38.743Z,37.53
2023-04-20T01:07:40.598Z,39.67
2023-04-20T01:12:44.321Z,37.63
2023-04-20T01:17:45.966Z,34.92
2023-04-20T01:22:50.533Z,56.30
2023-04-20T01:27:52.093Z,57.38
2023-04-20T01:32:53.699Z,54.13
2023-04-20T01:37:56.670Z,43.90
2023-04-20T01:42:58.265Z,43.20
2023-04-20T01:48:00.911Z,25.05
2023-04-20T01:53:03.833Z,15.57
2023-04-20T01:58:05.505Z,9.40
2023-04-20T02:03:07.214Z,14.35
2023-04-20T02:08:10.266Z,14.00
2023-04-20T02:13:11.817Z,10.40
2023-04-20T02:18:13.374Z,9.15
2023-04-20T02:23:16.345Z,13.45
2023-04-20T02:28:18.052Z,13.48
2023-04-20T02:33:19.589Z,13.88
2023-04-20T02:38:22.580Z,11.90
2023-04-20T02:43:24.178Z,12.82
2023-04-20T02:48:25.758Z,13.18
2023-04-20T02:53:28.661Z,12.13
2023-04-20T02:58:31.176Z,9.95
2023-04-20T03:03:33.206Z,17.05
2023-04-20T03:08:36.252Z,17.27
2023-04-20T03:13:37.933Z,13.95
2023-04-20T03:18:39.538Z,16.33
2023-04-20T03:23:42.454Z,20.33
2023-04-20T03:28:44.037Z,16.85
2023-04-20T03:33:45.589Z,12.70
2023-04-20T03:38:48.483Z,12.70
2023-04-20T03:43:50.063Z,15.02
2023-04-20T03:48:51.625Z,14.25
2023-04-20T03:53:54.495Z,15.00
2023-04-20T03:58:56.105Z,16.55
2023-04-20T04:03:58.107Z,18.25
2023-04-20T04:09:01.234Z,12.23
2023-04-20T04:14:02.978Z,14.50
2023-04-20T04:19:04.534Z,20.50
2023-04-20T04:24:07.960Z,13.27
2023-04-20T04:29:09.580Z,16.80
2023-04-20T04:34:11.147Z,10.40
2023-04-20T04:39:14.092Z,12.63
2023-04-20T04:44:15.646Z,12.80
2023-04-20T04:49:17.313Z,10.85
2023-04-20T04:54:20.812Z,13.63
2023-04-20T04:59:22.729Z,17.08
2023-04-20T05:04:24.336Z,15.15
2023-04-20T05:09:27.270Z,18.05
2023-04-20T05:14:28.970Z,20.25
2023-04-20T05:19:30.515Z,16.15
2023-04-20T05:24:33.408Z,14.43
2023-04-20T05:29:35.313Z,15.27
2023-04-20T05:34:36.924Z,15.25
2023-04-20T05:39:39.806Z,14.23
2023-04-20T05:44:41.366Z,15.00
2023-04-20T05:49:42.961Z,15.45
2023-04-20T05:54:45.907Z,12.23
2023-04-20T05:59:47.460Z,12.85
2023-04-20T06:04:49.052Z,12.88
2023-04-20T06:09:52.050Z,12.73
2023-04-20T06:14:53.662Z,26.75
2023-04-20T06:19:55.414Z,23.27
2023-04-20T06:24:59.633Z,21.63
2023-04-20T06:30:01.809Z,21.85
2023-04-20T06:35:03.600Z,17.13
2023-04-20T06:40:07.879Z,23.65
2023-04-20T06:45:10.435Z,24.20
2023-04-20T06:50:12.401Z,25.83
2023-04-20T06:55:15.314Z,34.17
2023-04-20T07:00:17.736Z,26.65
2023-04-20T07:05:19.382Z,16.33
2023-04-20T07:10:22.607Z,17.65
2023-04-20T07:15:24.332Z,18.10
2023-04-20T07:20:25.906Z,22.63
2023-04-20T07:25:29.336Z,26.65
2023-04-20T07:30:31.258Z,23.73
2023-04-20T07:35:32.848Z,17.08
2023-04-20T07:40:35.734Z,14.48
2023-04-20T07:45:39.508Z,23.13
2023-04-20T07:50:41.210Z,22.52
2023-04-20T07:55:44.133Z,22.70
2023-04-20T08:00:45.940Z,19.30
2023-04-20T08:05:47.466Z,23.45
2023-04-20T08:10:50.323Z,41.17
2023-04-20T08:15:51.902Z,31.73
2023-04-20T08:20:53.378Z,29.00
2023-04-20T08:25:56.485Z,27.65
2023-04-20T08:30:58.036Z,32.97
2023-04-20T08:35:59.538Z,30.70
2023-04-20T08:41:02.723Z,29.95
2023-04-20T08:46:04.327Z,27.38
2023-04-20T08:51:06.184Z,19.75
2023-04-20T08:56:09.712Z,17.25
2023-04-20T09:01:15.455Z,25.73
2023-04-20T09:06:19.353Z,25.02
2023-04-20T09:11:24.189Z,25.17
2023-04-20T09:16:25.815Z,27.42
2023-04-20T09:21:28.477Z,27.83
2023-04-20T09:26:33.485Z,28.10
2023-04-20T09:31:36.648Z,14.30
2023-04-20T09:36:39.311Z,29.38
2023-04-20T09:41:43.644Z,23.00
2023-04-20T09:46:45.534Z,18.88
2023-04-20T09:51:47.188Z,24.70
2023-04-20T09:56:50.633Z,22.63
2023-04-20T10:01:52.312Z,20.48
2023-04-20T10:06:55.503Z,18.50
2023-04-20T10:12:08.190Z,18.15
2023-04-20T10:17:09.851Z,18.98
2023-04-20T10:22:13.704Z,16.63
2023-04-20T10:27:21.155Z,17.48
2023-04-20T10:32:24.383Z,22.10
2023-04-20T10:37:26.346Z,16.48
2023-04-20T10:42:29.178Z,18.38
2023-04-20T10:47:32.180Z,15.50
2023-04-20T10:52:33.786Z,14.52
2023-04-20T10:57:37.415Z,14.85
2023-04-20T11:02:46.449Z,16.00
2023-04-20T11:07:51.317Z,10.48
2023-04-20T11:12:54.146Z,15.63
2023-04-20T11:17:55.715Z,15.20
2023-04-20T11:22:57.544Z,14.90
2023-04-20T11:28:06.872Z,15.38
2023-04-20T11:33:08.662Z,16.02
2023-04-20T11:38:10.385Z,16.25
2023-04-20T11:43:13.229Z,15.88
2023-04-20T11:48:14.711Z,14.95
2023-04-20T11:53:16.219Z,15.68
2023-04-20T11:58:19.077Z,12.18
2023-04-20T12:03:20.764Z,14.63
2023-04-20T12:08:22.435Z,12.30
2023-04-20T12:13:25.407Z,10.75
2023-04-20T12:18:27.001Z,11.98
2023-04-20T12:23:28.554Z,14.73
2023-04-20T12:28:31.633Z,14.52
2023-04-20T12:38:50.910Z,13.85
2023-04-20T12:43:53.859Z,13.00
2023-04-20T12:48:55.455Z,13.95
2023-04-20T12:53:57.082Z,16.42
2023-04-20T12:58:59.987Z,15.50
2023-04-20T13:04:01.713Z,14.50
2023-04-20T13:09:04.033Z,12.77
2023-04-20T13:14:06.885Z,10.27
2023-04-20T13:19:08.433Z,10.75
2023-04-20T13:24:10.035Z,9.93
2023-04-20T13:29:12.954Z,9.63
2023-04-20T13:34:14.784Z,11.30
2023-04-20T13:39:16.559Z,13.57
2023-04-20T13:44:19.859Z,12.32
2023-04-20T13:49:21.669Z,13.20
2023-04-20T13:54:23.260Z,12.55
2023-04-20T13:59:26.128Z,10.63
2023-04-20T14:04:27.729Z,9.48
2023-04-20T14:09:31.188Z,11.30
2023-04-20T14:14:34.094Z,12.30
2023-04-20T14:19:35.634Z,14.05
2023-04-20T14:24:37.171Z,15.32
2023-04-20T14:29:40.479Z,14.68
2023-04-20T14:34:42.028Z,15.77
2023-04-20T14:39:43.584Z,17.48
2023-04-20T14:44:46.500Z,15.82
2023-04-20T14:49:48.044Z,17.20
2023-04-20T14:54:49.585Z,20.67
2023-04-20T14:59:53.082Z,17.95
2023-04-20T15:04:57.333Z,23.42
2023-04-20T15:09:58.970Z,19.75
2023-04-20T15:15:01.892Z,20.17
2023-04-20T15:20:03.993Z,16.30
2023-04-20T15:25:06.497Z,18.73
2023-04-20T15:30:10.628Z,17.15
2023-04-20T15:35:12.212Z,16.85
2023-04-20T15:40:14.933Z,16.98
2023-04-20T15:45:17.979Z,18.52
2023-04-20T15:50:19.894Z,18.40
2023-04-20T15:55:21.511Z,21.55
2023-04-20T16:00:24.937Z,20.60
2023-04-20T16:05:26.547Z,21.70
2023-04-20T16:10:28.140Z,23.23
2023-04-20T16:15:31.155Z,20.65
2023-04-20T16:20:32.754Z,19.88
2023-04-20T16:25:34.585Z,20.45
2023-04-20T16:30:37.471Z,22.63
2023-04-20T16:35:39.037Z,20.08
2023-04-20T16:40:41.587Z,20.25
2023-04-20T16:45:44.610Z,21.40
2023-04-20T16:50:46.203Z,21.50
2023-04-20T16:55:47.775Z,19.60
2023-04-20T17:00:50.700Z,21.08
2023-04-20T17:05:52.272Z,22.52
2023-04-20T17:10:53.867Z,21.40
2023-04-20T17:15:56.807Z,23.63
2023-04-20T17:20:58.589Z,25.23
2023-04-20T17:26:00.165Z,25.10
2023-04-20T17:31:03.203Z,26.13
2023-04-20T17:36:05.285Z,29.35
2023-04-20T17:41:06.833Z,27.13
2023-04-20T17:46:09.814Z,23.88
2023-04-20T17:51:12.936Z,26.05
2023-04-20T17:56:14.507Z,27.50
2023-04-20T18:01:17.412Z,25.98
2023-04-20T18:06:19.058Z,28.08
2023-04-20T18:11:20.628Z,25.13
2023-04-20T18:16:23.785Z,22.23
2023-04-20T18:21:25.433Z,22.48
2023-04-20T18:26:27.061Z,23.73
2023-04-20T18:31:30.065Z,20.17
2023-04-20T18:36:31.651Z,24.13
2023-04-20T18:41:33.203Z,25.52
2023-04-20T18:46:36.151Z,26.73
2023-04-20T18:51:37.746Z,28.88
2023-04-20T18:56:39.316Z,21.08
2023-04-20T19:01:42.296Z,24.20
2023-04-20T19:06:43.969Z,24.25
2023-04-20T19:11:45.538Z,26.98
2023-04-20T19:16:48.543Z,27.98
2023-04-20T19:21:50.167Z,30.45
2023-04-20T19:26:51.762Z,33.30
2023-04-20T19:31:54.787Z,32.58
2023-04-20T19:36:56.428Z,35.70
2023-04-20T19:41:58.010Z,38.53
2023-04-20T19:47:00.894Z,51.83
2023-04-20T19:52:02.817Z,48.22
2023-04-20T19:57:04.407Z,74.18
2023-04-20T20:02:07.387Z,62.60
2023-04-20T20:07:09.046Z,50.70
2023-04-20T20:12:10.664Z,52.20
2023-04-20T20:17:13.824Z,48.03
2023-04-20T20:22:15.469Z,50.85
2023-04-20T20:27:17.063Z,42.35
2023-04-20T20:32:19.961Z,43.47
2023-04-20T20:37:21.534Z,41.97
2023-04-20T20:42:23.094Z,45.13
2023-04-20T20:47:26.381Z,49.25
2023-04-20T20:52:27.935Z,44.97
2023-04-20T20:57:29.532Z,43.90
2023-04-20T21:02:32.591Z,40.70
2023-04-20T21:07:34.489Z,40.72
2023-04-20T21:12:36.084Z,42.13
2023-04-20T21:17:39.127Z,36.65
2023-04-20T21:22:40.721Z,33.53
2023-04-20T21:27:42.466Z,34.75
2023-04-20T21:32:45.537Z,36.28
2023-04-20T21:37:47.123Z,37.55
2023-04-20T21:42:48.726Z,24.38
2023-04-20T21:47:51.662Z,33.83
2023-04-20T21:52:53.740Z,30.17
2023-04-20T21:57:55.278Z,30.45
2023-04-20T22:02:58.409Z,32.78
2023-04-20T22:08:00.105Z,33.65
2023-04-20T22:13:01.704Z,35.80
2023-04-20T22:18:04.892Z,31.80
2023-04-20T22:23:06.588Z,34.60
2023-04-20T22:28:08.529Z,34.47
2023-04-20T22:33:11.426Z,32.80
2023-04-20T22:38:13.039Z,32.28
2023-04-20T22:43:14.638Z,30.27
2023-04-20T22:48:17.587Z,30.67
2023-04-20T22:53:19.144Z,27.33
2023-04-20T22:58:20.725Z,30.70
2023-04-20T23:03:23.890Z,48.88
2023-04-20T23:08:25.878Z,38.80
2023-04-20T23:13:27.426Z,31.65
2023-04-20T23:18:30.332Z,32.80
2023-04-20T23:23:31.928Z,30.77
2023-04-20T23:28:33.510Z,30.88
2023-04-20T23:33:36.380Z,30.60
2023-04-20T23:38:37.979Z,30.70
2023-04-20T23:43:40.404Z,35.22
2023-04-20T23:48:43.353Z,30.73
2023-04-20T23:53:44.930Z,29.63
2023-04-20T23:58:46.487Z,31.17
